createdAt,value
2019-06-20T00:00:22.009Z,992.6
2019-06-20T00:01:19.222Z,992.57
2019-06-20T00:02:17.828Z,992.6
2019-06-20T00:03:21.852Z,992.64
2019-06-20T00:04:21.211Z,992.67
2019-06-20T00:05:18.682Z,992.7
2019-06-20T00:06:15.772Z,992.66
2019-06-20T00:07:15.802Z,992.67
2019-06-20T00:08:15.637Z,992.74
2019-06-20T00:09:15.671Z,992.8
2019-06-20T00:10:15.843Z,992.86
2019-06-20T00:11:23.677Z,992.8
2019-06-20T00:12:25.159Z,992.8
2019-06-20T00:13:23.672Z,992.73
2019-06-20T00:14:23.554Z,992.82
2019-06-20T00:15:24.086Z,992.85
2019-06-20T00:16:20.467Z,992.85
2019-06-20T00:17:17.949Z,992.82
2019-06-20T00:18:16.220Z,992.86
2019-06-20T00:19:16.197Z,992.99
2019-06-20T00:20:13.778Z,992.94
2019-06-20T00:21:22.964Z,992.93
2019-06-20T00:22:26.417Z,992.88
2019-06-20T00:23:42.794Z,992.93
2019-06-20T00:24:43.259Z,992.9
2019-06-20T00:25:43.551Z,992.88
2019-06-20T00:26:43.722Z,992.85
2019-06-20T00:27:42.392Z,992.91
2019-06-20T00:28:40.151Z,992.97
2019-06-20T00:29:38.006Z,992.88
2019-06-20T00:30:37.955Z,992.9
2019-06-20T00:31:35.170Z,992.86
2019-06-20T00:32:32.518Z,992.94
2019-06-20T00:33:31.252Z,992.93
2019-06-20T00:34:29.109Z,992.84
2019-06-20T00:35:28.025Z,992.86
2019-06-20T00:36:32.824Z,992.85
2019-06-20T00:37:28.660Z,992.85
2019-06-20T00:38:25.533Z,992.84
2019-06-20T00:39:23.737Z,992.89
2019-06-20T00:40:22.251Z,992.89
2019-06-20T00:41:19.547Z,992.86
2019-06-20T00:42:23.242Z,992.93
2019-06-20T00:43:22.456Z,992.89
2019-06-20T00:44:19.795Z,992.94
2019-06-20T00:45:19.555Z,992.91
2019-06-20T00:46:21.659Z,992.97
2019-06-20T00:47:19.360Z,992.99
2019-06-20T00:48:18.083Z,992.99
2019-06-20T00:49:15.266Z,992.91
2019-06-20T00:50:15.361Z,993
2019-06-20T00:51:17.506Z,992.99
2019-06-20T00:52:17.552Z,992.9
2019-06-20T00:53:20.803Z,992.93
2019-06-20T00:54:19.667Z,992.94
2019-06-20T00:55:23.874Z,992.99
2019-06-20T00:56:20.960Z,992.95
2019-06-20T00:57:19.324Z,992.99
2019-06-20T00:58:16.801Z,992.92
2019-06-20T00:59:16.055Z,993.09
2019-06-20T01:00:17.270Z,993.05
2019-06-20T01:01:15.976Z,993.05
2019-06-20T01:02:13.380Z,993.05
2019-06-20T01:03:11.451Z,993
2019-06-20T01:04:09.537Z,992.95
2019-06-20T01:05:08.405Z,992.96
2019-06-20T01:06:08.860Z,992.98
2019-06-20T01:07:06.672Z,993.05
2019-06-20T01:08:04.913Z,993.06
2019-06-20T01:09:02.216Z,992.95
2019-06-20T01:09:59.182Z,993.05
2019-06-20T01:10:57.995Z,993.04
2019-06-20T01:11:57.126Z,993.12
2019-06-20T01:12:55.658Z,993.11
2019-06-20T01:13:53.024Z,993.06
2019-06-20T01:14:54.273Z,993.06
2019-06-20T01:15:49.489Z,993.08
2019-06-20T01:16:46.721Z,993.09
2019-06-20T01:17:49.993Z,993.09
2019-06-20T01:18:48.545Z,993.06
2019-06-20T01:19:58.133Z,993.09
2019-06-20T01:20:58.420Z,993.06
2019-06-20T01:21:56.322Z,993.04
2019-06-20T01:23:01.183Z,993.11
2019-06-20T01:23:56.554Z,993.09
2019-06-20T01:24:56.048Z,993.12
2019-06-20T01:25:55.269Z,993.11
2019-06-20T01:26:54.164Z,993.12
2019-06-20T01:27:51.292Z,993.14
2019-06-20T01:29:00.747Z,993.18
2019-06-20T01:29:59.340Z,993.23
2019-06-20T01:30:56.139Z,993.2
2019-06-20T01:31:53.139Z,993.15
2019-06-20T01:32:50.300Z,993.17
2019-06-20T01:33:52.487Z,993.24
2019-06-20T01:34:49.627Z,993.17
2019-06-20T01:35:50.452Z,993.24
2019-06-20T01:36:49.091Z,993.26
2019-06-20T01:37:54.742Z,993.26
2019-06-20T01:38:58.345Z,993.31
2019-06-20T01:39:55.387Z,993.41
2019-06-20T01:40:52.938Z,993.31
2019-06-20T01:41:49.736Z,993.36
2019-06-20T01:42:53.403Z,993.34
2019-06-20T01:43:51.500Z,993.35
2019-06-20T01:44:53.647Z,993.34
2019-06-20T01:45:51.163Z,993.38
2019-06-20T01:46:48.444Z,993.41
2019-06-20T01:47:46.727Z,993.42
2019-06-20T01:48:45.853Z,993.47
2019-06-20T01:49:42.883Z,993.35
2019-06-20T01:50:40.308Z,993.42
2019-06-20T01:51:37.493Z,993.44
2019-06-20T01:52:37.919Z,993.5
2019-06-20T01:53:34.924Z,993.41
2019-06-20T01:55:34.139Z,993.47
2019-06-20T01:56:31.213Z,993.44
2019-06-20T01:57:37.276Z,993.5
2019-06-20T01:58:34.803Z,993.59
2019-06-20T01:59:32.024Z,993.48
2019-06-20T02:00:28.860Z,993.51
2019-06-20T02:01:31.702Z,993.54
2019-06-20T02:02:30.620Z,993.48
2019-06-20T02:03:27.281Z,993.54
2019-06-20T02:04:26.160Z,993.5
2019-06-20T02:05:26.729Z,993.51
2019-06-20T02:06:24.791Z,993.51
2019-06-20T02:07:28.104Z,993.56
2019-06-20T02:08:22.631Z,993.63
2019-06-20T02:09:19.930Z,993.57
2019-06-20T02:10:19.166Z,993.53
2019-06-20T02:11:18.102Z,993.65
2019-06-20T02:12:16.830Z,993.56
2019-06-20T02:13:15.229Z,993.59
2019-06-20T02:14:12.216Z,993.57
2019-06-20T02:15:10.752Z,993.56
2019-06-20T02:16:07.553Z,993.57
2019-06-20T02:17:08.186Z,993.56
2019-06-20T02:18:07.740Z,993.59
2019-06-20T02:19:09.011Z,993.57
2019-06-20T02:20:09.573Z,993.59
2019-06-20T02:21:07.176Z,993.51
2019-06-20T02:22:03.954Z,993.53
2019-06-20T02:23:02.224Z,993.6
2019-06-20T02:23:59.181Z,993.54
2019-06-20T02:25:06.364Z,993.57
2019-06-20T02:26:03.604Z,993.66
2019-06-20T02:27:02.423Z,993.59
2019-06-20T02:28:00.733Z,993.53
2019-06-20T02:29:00.424Z,993.53
2019-06-20T02:29:59.501Z,993.65
2019-06-20T02:31:08.065Z,993.56
2019-06-20T02:32:05.565Z,993.57
2019-06-20T02:33:03.029Z,993.59
2019-06-20T02:34:00.240Z,993.56
2019-06-20T02:34:58.026Z,993.6
2019-06-20T02:35:57.576Z,993.59
2019-06-20T02:36:55.285Z,993.6
2019-06-20T02:37:53.182Z,993.54
2019-06-20T02:38:50.347Z,993.66
2019-06-20T02:39:49.342Z,993.62
2019-06-20T02:40:58.918Z,993.65
2019-06-20T02:41:59.834Z,993.62
2019-06-20T02:43:07.462Z,993.62
2019-06-20T02:43:34.765Z,993.6
2019-06-20T02:44:31.573Z,993.65
2019-06-20T02:45:29.118Z,993.68
2019-06-20T02:46:27.190Z,993.62
2019-06-20T02:47:28.729Z,993.68
2019-06-20T02:48:25.699Z,993.62
2019-06-20T02:49:23.181Z,993.69
2019-06-20T02:50:25.168Z,993.63
2019-06-20T02:51:25.497Z,993.71
2019-06-20T02:52:23.302Z,993.72
2019-06-20T02:53:25.581Z,993.65
2019-06-20T02:54:25.626Z,993.71
2019-06-20T02:55:24.374Z,993.68
2019-06-20T02:56:23.232Z,993.57
2019-06-20T02:57:20.318Z,993.66
2019-06-20T02:58:19.763Z,993.69
2019-06-20T02:59:19.066Z,993.74
2019-06-20T03:00:22.145Z,993.71
2019-06-20T03:01:27.307Z,993.71
2019-06-20T03:02:24.518Z,993.63
2019-06-20T03:03:21.649Z,993.78
2019-06-20T03:04:21.818Z,993.71
2019-06-20T03:05:25.232Z,993.6
2019-06-20T03:06:24.478Z,993.63
2019-06-20T03:07:24.543Z,993.71
2019-06-20T03:08:21.784Z,993.69
2019-06-20T03:09:20.241Z,993.68
2019-06-20T03:10:16.991Z,993.71
2019-06-20T03:11:16.348Z,993.75
2019-06-20T03:12:20.142Z,993.69
2019-06-20T03:13:17.381Z,993.65
2019-06-20T03:14:17.679Z,993.78
2019-06-20T03:15:11.965Z,993.77
2019-06-20T03:16:08.734Z,993.8
2019-06-20T03:17:12.887Z,993.79
2019-06-20T03:18:11.743Z,993.82
2019-06-20T03:19:10.396Z,993.88
2019-06-20T03:20:07.446Z,993.85
2019-06-20T03:21:06.991Z,993.81
2019-06-20T03:22:08.997Z,993.9
2019-06-20T03:23:11.731Z,993.81
2019-06-20T03:24:05.713Z,993.82
2019-06-20T03:25:08.074Z,993.9
2019-06-20T03:26:02.332Z,993.87
2019-06-20T03:27:00.407Z,993.87
2019-06-20T03:28:03.474Z,993.87
2019-06-20T03:29:03.350Z,993.9
2019-06-20T03:30:01.788Z,993.94
2019-06-20T03:31:01.726Z,993.9
2019-06-20T03:31:58.402Z,993.88
2019-06-20T03:32:57.962Z,993.88
2019-06-20T03:34:05.268Z,993.91
2019-06-20T03:35:04.589Z,993.87
2019-06-20T03:36:07.235Z,993.94
2019-06-20T03:37:02.697Z,993.94
2019-06-20T03:38:00.929Z,993.91
2019-06-20T03:39:00.968Z,993.87
2019-06-20T03:39:59.163Z,993.93
2019-06-20T03:40:56.547Z,994.02
2019-06-20T03:41:54.355Z,993.96
2019-06-20T03:42:51.993Z,994.02
2019-06-20T03:43:53.479Z,993.93
2019-06-20T03:45:02.099Z,993.94
2019-06-20T03:45:02.440Z,993.94
2019-06-20T03:45:52.328Z,993.88
2019-06-20T03:46:49.501Z,993.96
2019-06-20T03:47:48.938Z,993.91
2019-06-20T03:48:52.004Z,993.99
2019-06-20T03:49:54.538Z,993.96
2019-06-20T03:50:52.911Z,993.99
2019-06-20T03:51:52.538Z,993.94
2019-06-20T03:52:49.598Z,994.03
2019-06-20T03:53:47.729Z,994.03
2019-06-20T03:54:49.139Z,994.12
2019-06-20T03:55:48.808Z,994.02
2019-06-20T03:56:56.391Z,994.09
2019-06-20T03:57:50.722Z,994
2019-06-20T03:58:57.828Z,994.09
2019-06-20T03:59:54.706Z,994.11
2019-06-20T04:00:55.185Z,994.11
2019-06-20T04:01:54.674Z,994.08
2019-06-20T04:02:51.579Z,994.06
2019-06-20T04:03:48.345Z,994.06
2019-06-20T04:04:49.513Z,994.11
2019-06-20T04:05:47.313Z,994.08
2019-06-20T04:06:57.871Z,994.19
2019-06-20T04:07:52.167Z,994.02
2019-06-20T04:08:49.978Z,994.08
2019-06-20T04:09:46.936Z,994.09
2019-06-20T04:10:43.729Z,994.17
2019-06-20T04:11:41.330Z,994.11
2019-06-20T04:12:42.463Z,994.11
2019-06-20T04:13:42.811Z,994.03
2019-06-20T04:14:40.635Z,994.15
2019-06-20T04:15:39.409Z,994.12
2019-06-20T04:16:40.823Z,994.2
2019-06-20T04:17:39.113Z,994.02
2019-06-20T04:18:37.265Z,994.17
2019-06-20T04:19:34.418Z,994.11
2019-06-20T04:20:34.810Z,994.24
2019-06-20T04:21:32.856Z,994.24
2019-06-20T04:22:34.721Z,994.14
2019-06-20T04:23:32.663Z,994.17
2019-06-20T04:24:31.018Z,994.17
2019-06-20T04:25:30.123Z,994.17
2019-06-20T04:26:27.307Z,994.09
2019-06-20T04:27:24.171Z,994.12
2019-06-20T04:28:22.887Z,994.25
2019-06-20T04:29:21.723Z,994.21
2019-06-20T04:30:27.751Z,994.21
2019-06-20T04:31:26.317Z,994.24
2019-06-20T04:32:25.837Z,994.25
2019-06-20T04:33:25.052Z,994.28
2019-06-20T04:34:23.257Z,994.36
2019-06-20T04:35:20.449Z,994.31
2019-06-20T04:36:17.952Z,994.37
2019-06-20T04:37:18.103Z,994.34
2019-06-20T04:38:21.592Z,994.36
2019-06-20T04:39:25.087Z,994.4
2019-06-20T04:40:24.247Z,994.42
2019-06-20T04:41:24.247Z,994.43
2019-06-20T04:42:25.140Z,994.43
2019-06-20T04:43:34.122Z,994.4
2019-06-20T04:44:31.817Z,994.46
2019-06-20T04:45:35.580Z,994.52
2019-06-20T04:46:32.498Z,994.45
2019-06-20T04:47:29.850Z,994.51
2019-06-20T04:48:39.250Z,994.49
2019-06-20T04:49:39.442Z,994.51
2019-06-20T04:50:37.969Z,994.53
2019-06-20T04:51:43.136Z,994.61
2019-06-20T04:52:46.998Z,994.55
2019-06-20T04:53:44.050Z,994.56
2019-06-20T04:54:44.200Z,994.56
2019-06-20T04:55:42.981Z,994.64
2019-06-20T04:56:41.002Z,994.64
2019-06-20T04:57:40.191Z,994.68
2019-06-20T04:58:44.979Z,994.68
2019-06-20T04:59:42.590Z,994.61
2019-06-20T05:00:47.817Z,994.58
2019-06-20T05:01:45.450Z,994.67
2019-06-20T05:02:42.185Z,994.69
2019-06-20T05:03:43.099Z,994.7
2019-06-20T05:04:43.062Z,994.68
2019-06-20T05:05:40.871Z,994.72
2019-06-20T05:06:47.467Z,994.7
2019-06-20T05:07:49.628Z,994.65
2019-06-20T05:08:53.186Z,994.72
2019-06-20T05:09:55.279Z,994.67
2019-06-20T05:10:52.461Z,994.68
2019-06-20T05:11:49.663Z,994.68
2019-06-20T05:12:48.259Z,994.73
2019-06-20T05:13:46.310Z,994.75
2019-06-20T05:14:42.864Z,994.76
2019-06-20T05:15:52.038Z,994.82
2019-06-20T05:15:52.491Z,994.82
2019-06-20T05:15:52.919Z,994.82
2019-06-20T05:16:41.676Z,994.73
2019-06-20T05:17:43.074Z,994.79
2019-06-20T05:18:39.374Z,994.73
2019-06-20T05:19:39.513Z,994.75
2019-06-20T05:20:38.595Z,994.8
2019-06-20T05:21:39.024Z,994.79
2019-06-20T05:22:33.026Z,994.79
2019-06-20T05:23:36.026Z,994.68
2019-06-20T05:24:37.052Z,994.76
2019-06-20T05:25:35.880Z,994.8
2019-06-20T05:26:37.652Z,994.78
2019-06-20T05:27:34.222Z,994.76
2019-06-20T05:28:32.355Z,994.75
2019-06-20T05:29:32.986Z,994.79
2019-06-20T05:30:33.503Z,994.76
2019-06-20T05:31:31.739Z,994.78
2019-06-20T05:32:31.739Z,994.82
2019-06-20T05:33:31.975Z,994.81
2019-06-20T05:34:30.188Z,994.83
2019-06-20T05:35:27.496Z,994.73
2019-06-20T05:36:23.977Z,994.82
2019-06-20T05:37:28.427Z,994.81
2019-06-20T05:38:30.828Z,994.89
2019-06-20T05:39:30.472Z,994.88
2019-06-20T05:40:28.160Z,994.86
2019-06-20T05:41:26.767Z,994.94
2019-06-20T05:42:24.334Z,994.83
2019-06-20T05:43:22.450Z,994.88
2019-06-20T05:44:19.649Z,994.88
2019-06-20T05:45:20.853Z,994.92
2019-06-20T05:46:24.159Z,994.94
2019-06-20T05:47:25.336Z,994.92
2019-06-20T05:48:25.384Z,994.89
2019-06-20T05:49:25.429Z,994.91
2019-06-20T05:50:25.368Z,994.91
2019-06-20T05:51:22.404Z,994.97
2019-06-20T05:52:24.725Z,994.88
2019-06-20T05:53:27.311Z,994.91
2019-06-20T05:54:27.360Z,994.95
2019-06-20T05:55:26.227Z,994.94
2019-06-20T05:56:39.978Z,994.88
2019-06-20T05:57:37.134Z,994.86
2019-06-20T05:58:36.710Z,994.88
2019-06-20T05:59:40.962Z,994.86
2019-06-20T06:00:42.894Z,994.85
2019-06-20T06:01:47.473Z,994.89
2019-06-20T06:02:48.848Z,994.92
2019-06-20T06:03:49.900Z,994.85
2019-06-20T06:04:48.555Z,994.91
2019-06-20T06:05:45.955Z,994.94
2019-06-20T06:06:43.460Z,994.92
2019-06-20T06:07:40.503Z,994.94
2019-06-20T06:08:40.914Z,994.91
2019-06-20T06:09:38.316Z,994.88
2019-06-20T06:10:35.048Z,995
2019-06-20T06:12:12.030Z,994.98
2019-06-20T06:15:01.108Z,994.91
2019-06-20T06:15:57.700Z,994.86
2019-06-20T06:16:59.843Z,994.95
2019-06-20T06:18:02.623Z,994.91
2019-06-20T06:19:04.023Z,994.89
2019-06-20T06:20:08.271Z,994.83
2019-06-20T06:21:11.166Z,994.88
2019-06-20T06:22:13.457Z,994.95
2019-06-20T06:23:20.453Z,995
2019-06-20T06:24:19.372Z,994.82
2019-06-20T06:25:24.402Z,994.83
2019-06-20T06:26:22.831Z,994.85
2019-06-20T06:27:21.420Z,994.92
2019-06-20T06:28:22.258Z,994.89
2019-06-20T06:29:21.486Z,994.86
2019-06-20T06:30:22.737Z,994.88
2019-06-20T06:31:25.531Z,994.89
2019-06-20T06:32:39.679Z,994.92
2019-06-20T06:32:40.214Z,994.92
2019-06-20T06:32:40.499Z,994.92
2019-06-20T06:33:27.581Z,994.94
2019-06-20T06:34:27.592Z,994.92
2019-06-20T06:35:29.848Z,994.97
2019-06-20T06:36:30.409Z,994.92
2019-06-20T06:37:36.140Z,994.92
2019-06-20T06:38:35.981Z,994.91
2019-06-20T06:39:34.799Z,995.01
2019-06-20T06:40:33.557Z,994.95
2019-06-20T06:41:32.980Z,994.97
2019-06-20T06:42:31.888Z,994.92
2019-06-20T06:43:41.750Z,994.97
2019-06-20T06:43:42.321Z,994.97
2019-06-20T06:44:34.567Z,995.03
2019-06-20T06:45:42.006Z,995.01
2019-06-20T06:46:51.327Z,994.97
2019-06-20T06:46:54.224Z,994.97
2019-06-20T06:46:59.067Z,994.97
2019-06-20T06:47:45.698Z,995.02
2019-06-20T06:48:45.705Z,995.07
2019-06-20T06:49:45.484Z,995.1
2019-06-20T06:50:44.397Z,995.01
2019-06-20T06:51:50.066Z,995.02
2019-06-20T06:52:57.687Z,995.07
2019-06-20T06:53:56.905Z,995.01
2019-06-20T06:54:56.808Z,995.01
2019-06-20T06:55:57.419Z,995.08
2019-06-20T06:56:57.380Z,994.95
2019-06-20T06:57:56.397Z,995.03
2019-06-20T06:59:02.023Z,995.07
2019-06-20T07:00:01.038Z,994.98
2019-06-20T07:01:00.370Z,994.97
2019-06-20T07:02:02.363Z,994.92
2019-06-20T07:03:03.633Z,994.97
2019-06-20T07:04:02.141Z,994.98
2019-06-20T07:05:07.685Z,995.01
2019-06-20T07:06:09.796Z,994.94
2019-06-20T07:07:09.886Z,994.92
2019-06-20T07:08:09.581Z,994.95
2019-06-20T07:09:17.338Z,994.94
2019-06-20T07:10:16.893Z,994.98
2019-06-20T07:11:18.511Z,994.98
2019-06-20T07:12:22.036Z,995
2019-06-20T07:13:20.987Z,995.04
2019-06-20T07:14:20.251Z,994.97
2019-06-20T07:15:20.572Z,995
2019-06-20T07:16:21.499Z,995.05
2019-06-20T07:17:20.914Z,995.05
2019-06-20T07:18:21.282Z,995.1
2019-06-20T07:19:20.103Z,995.07
2019-06-20T07:20:20.043Z,995.08
2019-06-20T07:21:22.261Z,995.13
2019-06-20T07:22:22.008Z,995.01
2019-06-20T07:23:28.935Z,995.1
2019-06-20T07:24:29.165Z,995.17
2019-06-20T07:25:31.132Z,995.07
2019-06-20T07:26:30.378Z,995.1
2019-06-20T07:27:40.712Z,995.17
2019-06-20T07:28:40.276Z,995.17
2019-06-20T07:29:38.809Z,995.25
2019-06-20T07:30:41.151Z,995.24
2019-06-20T07:31:39.727Z,995.14
2019-06-20T07:32:38.521Z,995.26
2019-06-20T07:33:39.932Z,995.24
2019-06-20T07:34:41.139Z,995.19
2019-06-20T07:35:41.994Z,995.32
2019-06-20T07:36:39.887Z,995.26
2019-06-20T07:37:41.873Z,995.2
2019-06-20T07:38:40.436Z,995.29
2019-06-20T07:39:48.491Z,995.24
2019-06-20T07:40:54.206Z,995.35
2019-06-20T07:41:53.881Z,995.23
2019-06-20T07:42:54.028Z,995.21
2019-06-20T07:44:00.062Z,995.2
2019-06-20T07:45:01.673Z,995.35
2019-06-20T07:46:03.880Z,995.3
2019-06-20T07:47:17.054Z,995.27
2019-06-20T07:47:17.662Z,995.27
2019-06-20T07:47:18.003Z,995.27
2019-06-20T07:48:04.618Z,995.23
2019-06-20T07:49:03.935Z,995.2
2019-06-20T07:50:06.695Z,995.26
2019-06-20T07:51:05.845Z,995.21
2019-06-20T07:52:05.799Z,995.26
2019-06-20T07:53:07.986Z,995.29
2019-06-20T07:54:07.083Z,995.32
2019-06-20T07:55:08.208Z,995.26
2019-06-20T07:56:09.383Z,995.29
2019-06-20T07:57:08.877Z,995.29
2019-06-20T07:58:08.362Z,995.24
2019-06-20T07:59:08.990Z,995.26
2019-06-20T08:00:08.099Z,995.26
2019-06-20T08:01:16.666Z,995.31
2019-06-20T08:02:15.418Z,995.34
2019-06-20T08:03:30.154Z,995.31
2019-06-20T08:04:28.504Z,995.29
2019-06-20T08:05:28.137Z,995.39
2019-06-20T08:06:40.674Z,995.34
2019-06-20T08:07:40.037Z,995.36
2019-06-20T08:08:39.521Z,995.26
2019-06-20T08:09:45.110Z,995.37
2019-06-20T08:10:42.096Z,995.25
2019-06-20T08:11:41.421Z,995.36
2019-06-20T08:12:40.126Z,995.37
2019-06-20T08:13:40.343Z,995.45
2019-06-20T08:14:41.651Z,995.42
2019-06-20T08:15:40.570Z,995.43
2019-06-20T08:16:42.882Z,995.3
2019-06-20T08:17:42.029Z,995.44
2019-06-20T08:18:50.273Z,995.42
2019-06-20T08:20:07.465Z,995.44
2019-06-20T08:21:08.791Z,995.44
2019-06-20T08:22:22.388Z,995.43
2019-06-20T08:23:26.318Z,995.5
2019-06-20T08:24:28.829Z,995.4
2019-06-20T08:25:25.500Z,995.44
2019-06-20T08:26:26.725Z,995.44
2019-06-20T08:27:27.854Z,995.53
2019-06-20T08:28:26.591Z,995.44
2019-06-20T08:29:28.048Z,995.52
2019-06-20T08:30:28.942Z,995.46
2019-06-20T08:31:28.821Z,995.44
2019-06-20T08:32:31.610Z,995.43
2019-06-20T08:33:33.295Z,995.52
2019-06-20T08:34:41.338Z,995.5
2019-06-20T08:35:38.529Z,995.47
2019-06-20T08:36:43.115Z,995.56
2019-06-20T08:37:49.818Z,995.5
2019-06-20T08:38:57.445Z,995.5
2019-06-20T08:40:00.012Z,995.5
2019-06-20T08:41:04.317Z,995.56
2019-06-20T08:42:04.421Z,995.5
2019-06-20T08:43:08.834Z,995.56
2019-06-20T08:44:07.989Z,995.54
2019-06-20T08:45:13.868Z,995.54
2019-06-20T08:46:11.846Z,995.65
2019-06-20T08:47:13.599Z,995.65
2019-06-20T08:48:14.777Z,995.57
2019-06-20T08:49:15.402Z,995.54
2019-06-20T08:50:18.300Z,995.54
2019-06-20T08:51:18.285Z,995.57
2019-06-20T08:52:18.476Z,995.57
2019-06-20T08:53:20.218Z,995.68
2019-06-20T08:54:19.010Z,995.65
2019-06-20T08:55:18.428Z,995.61
2019-06-20T08:56:19.759Z,995.68
2019-06-20T08:57:23.047Z,995.56
2019-06-20T08:58:19.152Z,995.64
2019-06-20T08:59:24.795Z,995.72
2019-06-20T09:00:21.599Z,995.64
2019-06-20T09:01:20.784Z,995.54
2019-06-20T09:02:20.770Z,995.57
2019-06-20T09:03:20.363Z,995.68
2019-06-20T09:04:22.403Z,995.65
2019-06-20T09:05:25.373Z,995.66
2019-06-20T09:06:22.027Z,995.69
2019-06-20T09:07:21.785Z,995.71
2019-06-20T09:08:23.446Z,995.71
2019-06-20T09:09:25.903Z,995.69
2019-06-20T09:10:26.147Z,995.68
2019-06-20T09:11:26.119Z,995.72
2019-06-20T09:12:29.535Z,995.6
2019-06-20T09:13:36.686Z,995.77
2019-06-20T09:14:35.856Z,995.72
2019-06-20T09:15:35.596Z,995.71
2019-06-20T09:16:42.822Z,995.74
2019-06-20T09:17:43.627Z,995.87
2019-06-20T09:18:47.587Z,995.77
2019-06-20T09:19:47.790Z,995.84
2019-06-20T09:20:31.122Z,995.83
2019-06-20T09:21:32.831Z,995.83
2019-06-20T09:22:33.655Z,995.9
2019-06-20T09:23:35.679Z,995.84
2019-06-20T09:24:32.902Z,995.78
2019-06-20T09:25:33.784Z,995.74
2019-06-20T09:26:33.213Z,995.87
2019-06-20T09:27:32.583Z,995.84
2019-06-20T09:28:42.162Z,995.84
2019-06-20T09:29:43.087Z,995.77
2019-06-20T09:30:50.668Z,995.78
2019-06-20T09:31:52.455Z,995.9
2019-06-20T09:32:52.258Z,995.81
2019-06-20T09:33:56.196Z,995.91
2019-06-20T09:34:56.536Z,995.84
2019-06-20T09:35:55.602Z,995.97
2019-06-20T09:36:55.175Z,995.85
2019-06-20T09:37:57.131Z,995.9
2019-06-20T09:38:57.832Z,995.88
2019-06-20T09:39:59.196Z,995.94
2019-06-20T09:40:59.481Z,996.05
2019-06-20T09:42:05.249Z,995.93
2019-06-20T09:43:04.367Z,995.97
2019-06-20T09:44:06.658Z,995.97
2019-06-20T09:45:06.841Z,995.93
2019-06-20T09:46:09.390Z,995.96
2019-06-20T09:47:09.348Z,996.03
2019-06-20T09:48:12.056Z,996.02
2019-06-20T09:49:12.872Z,995.97
2019-06-20T09:50:13.158Z,996.02
2019-06-20T09:51:16.975Z,996.06
2019-06-20T09:52:22.090Z,996
2019-06-20T09:53:21.645Z,996.02
2019-06-20T09:54:24.293Z,996
2019-06-20T09:55:24.429Z,995.91
2019-06-20T09:56:27.906Z,996.03
2019-06-20T09:57:27.024Z,996.02
2019-06-20T09:58:26.788Z,996.07
2019-06-20T09:59:27.782Z,996.02
2019-06-20T10:00:31.867Z,996.13
2019-06-20T10:01:31.553Z,996.05
2019-06-20T10:02:35.339Z,996.09
2019-06-20T10:03:35.956Z,995.99
2019-06-20T10:04:35.111Z,996.12
2019-06-20T10:05:34.958Z,996.09
2019-06-20T10:06:41.147Z,996.04
2019-06-20T10:07:41.694Z,996.1
2019-06-20T10:08:44.146Z,996.07
2019-06-20T10:09:47.082Z,996.09
2019-06-20T10:10:49.355Z,996.04
2019-06-20T10:11:47.971Z,996.13
2019-06-20T10:12:49.647Z,996.12
2019-06-20T10:13:52.240Z,996.09
2019-06-20T10:14:53.564Z,996.03
2019-06-20T10:15:55.681Z,996.1
2019-06-20T10:17:00.264Z,996.16
2019-06-20T10:18:00.687Z,996.16
2019-06-20T10:19:00.226Z,996.16
2019-06-20T10:20:00.094Z,996.21
2019-06-20T10:21:02.189Z,996.19
2019-06-20T10:22:01.714Z,996.32
2019-06-20T10:23:01.168Z,996.28
2019-06-20T10:24:00.524Z,996.21
2019-06-20T10:25:00.957Z,996.23
2019-06-20T10:26:10.419Z,996.19
2019-06-20T10:27:11.121Z,996.12
2019-06-20T10:28:17.390Z,996.19
2019-06-20T10:29:20.217Z,996.12
2019-06-20T10:30:23.701Z,996.16
2019-06-20T10:31:26.640Z,996.15
2019-06-20T10:32:31.137Z,996.19
2019-06-20T10:33:37.087Z,996.22
2019-06-20T10:34:34.229Z,996.18
2019-06-20T10:35:36.521Z,996.23
2019-06-20T10:36:36.332Z,996.25
2019-06-20T10:37:35.662Z,996.2
2019-06-20T10:38:35.696Z,996.19
2019-06-20T10:39:36.297Z,996.2
2019-06-20T10:40:39.558Z,996.2
2019-06-20T10:41:45.200Z,996.09
2019-06-20T10:42:46.080Z,996.16
2019-06-20T10:43:49.553Z,996.17
2019-06-20T10:44:56.238Z,996.16
2019-06-20T10:45:58.571Z,996.11
2019-06-20T10:46:59.942Z,996.11
2019-06-20T10:47:59.508Z,996.17
2019-06-20T10:49:02.933Z,996.17
2019-06-20T10:50:06.488Z,996.11
2019-06-20T10:51:07.305Z,996.16
2019-06-20T10:52:07.770Z,996.17
2019-06-20T10:53:10.353Z,996.19
2019-06-20T10:54:14.472Z,996.22
2019-06-20T10:55:14.461Z,996.14
2019-06-20T10:56:14.445Z,996.17
2019-06-20T10:57:13.889Z,996.2
2019-06-20T10:58:17.916Z,996.29
2019-06-20T10:59:30.635Z,996.16
2019-06-20T11:00:31.183Z,996.26
2019-06-20T11:01:28.039Z,996.11
2019-06-20T11:02:31.117Z,996.26
2019-06-20T11:03:32.550Z,996.21
2019-06-20T11:04:35.529Z,996.32
2019-06-20T11:05:39.068Z,996.3
2019-06-20T11:06:39.876Z,996.26
2019-06-20T11:07:40.773Z,996.33
2019-06-20T11:08:43.281Z,996.27
2019-06-20T11:09:49.538Z,996.2
2019-06-20T11:10:50.875Z,996.27
2019-06-20T11:11:51.913Z,996.21
2019-06-20T11:12:56.666Z,996.26
2019-06-20T11:14:00.302Z,996.17
2019-06-20T11:15:00.268Z,996.23
2019-06-20T11:16:02.991Z,996.24
2019-06-20T11:17:03.497Z,996.2
2019-06-20T11:18:20.537Z,996.21
2019-06-20T11:19:18.295Z,996.2
2019-06-20T11:20:22.433Z,996.24
2019-06-20T11:21:21.582Z,996.18
2019-06-20T11:22:24.273Z,996.23
2019-06-20T11:23:33.203Z,996.27
2019-06-20T11:24:37.424Z,996.29
2019-06-20T11:25:41.978Z,996.18
2019-06-20T11:26:41.130Z,996.2
2019-06-20T11:27:43.110Z,996.23
2019-06-20T11:28:48.704Z,996.26
2019-06-20T11:29:46.674Z,996.18
2019-06-20T11:30:58.042Z,996.18
2019-06-20T11:30:59.899Z,996.18
2019-06-20T11:31:00.595Z,996.18
2019-06-20T11:31:54.628Z,996.18
2019-06-20T11:32:55.370Z,996.18
2019-06-20T11:33:55.939Z,996.21
2019-06-20T11:34:55.914Z,996.2
2019-06-20T11:35:55.947Z,996.07
2019-06-20T11:36:56.974Z,996.23
2019-06-20T11:38:00.323Z,996.11
2019-06-20T11:39:05.541Z,996.2
2019-06-20T11:40:04.023Z,996.17
2019-06-20T11:41:05.834Z,996.18
2019-06-20T11:42:05.847Z,996.24
2019-06-20T11:43:07.025Z,996.18
2019-06-20T11:44:09.331Z,996.17
2019-06-20T11:45:09.080Z,996.15
2019-06-20T11:46:08.630Z,996.11
2019-06-20T11:47:08.870Z,996.21
2019-06-20T11:48:08.509Z,996.21
2019-06-20T11:49:08.892Z,996.24
2019-06-20T11:50:12.282Z,996.17
2019-06-20T11:51:14.136Z,996.23
2019-06-20T11:52:16.185Z,996.23
2019-06-20T11:53:14.264Z,996.14
2019-06-20T11:54:14.192Z,996.1
2019-06-20T11:55:14.683Z,996.23
2019-06-20T11:56:28.515Z,996.24
2019-06-20T11:57:29.889Z,996.15
2019-06-20T11:58:37.545Z,996.23
2019-06-20T11:59:34.675Z,996.18
2019-06-20T12:00:34.226Z,996.13
2019-06-20T12:01:34.563Z,996.18
2019-06-20T12:02:44.262Z,996.18
2019-06-20T12:03:44.542Z,996.17
2019-06-20T12:04:49.115Z,996.15
2019-06-20T12:05:47.936Z,996.11
2019-06-20T12:06:47.609Z,996.1
2019-06-20T12:07:51.419Z,996.23
2019-06-20T12:08:53.692Z,996.2
2019-06-20T12:09:54.816Z,996.18
2019-06-20T12:11:00.701Z,996.17
2019-06-20T12:12:02.564Z,996.08
2019-06-20T12:13:02.490Z,996.14
2019-06-20T12:14:02.909Z,996.17
2019-06-20T12:15:07.701Z,996.14
2019-06-20T12:16:06.814Z,996.14
2019-06-20T12:17:12.395Z,996.17
2019-06-20T12:18:16.510Z,996.15
2019-06-20T12:19:23.147Z,996.21
2019-06-20T12:20:25.825Z,996.17
2019-06-20T12:21:26.719Z,996.15
2019-06-20T12:22:29.570Z,996.18
2019-06-20T12:23:33.489Z,996.18
2019-06-20T12:24:33.111Z,996.24
2019-06-20T12:25:35.119Z,996.15
2019-06-20T12:26:35.785Z,996.17
2019-06-20T12:27:36.085Z,996.15
2019-06-20T12:28:35.931Z,996.23
2019-06-20T12:29:37.728Z,996.08
2019-06-20T12:30:38.437Z,996.07